Time;durP1;ratioP1;P1;durP2;ratioP2;P2;SDS_P1;SDS_P2;PMS_P1;PMS_P2;Temp;Humidity;BMP_temperature;BMP_pressure;BME280_temperature;BME280_humidity;BME280_pressure;Samples;Min_cycle;Max_cycle;Signal;HPM_P1;HPM_P2
2023/12/01 00:02:20;;;;;;;18.83;10.95;;;;;;;;;;5042366;28;20093;-78
2023/12/01 00:04:47;;;;;;;18.02;12.50;;;;;;;;;;5059230;28;20498;-77
2023/12/01 00:07:14;;;;;;;17.17;11.32;;;;;;;;;;5039812;28;20477;-78
2023/12/01 00:09:41;;;;;;;16.63;10.90;;;;;;;;;;5054645;28;20681;-78
2023/12/01 00:12:08;;;;;;;17.65;11.15;;;;;;;;;;5060692;28;20063;-78
2023/12/01 00:14:35;;;;;;;18.45;11.68;;;;;;;;;;5055395;28;20087;-78
2023/12/01 00:17:02;;;;;;;20.90;12.15;;;;;;;;;;5059178;28;20102;-78
2023/12/01 00:19:28;;;;;;;17.60;11.48;;;;;;;;;;5041664;28;20060;-78
2023/12/01 00:21:56;;;;;;;16.52;11.20;;;;;;;;;;5078565;28;20060;-78
2023/12/01 00:24:23;;;;;;;17.73;12.00;;;;;;;;;;5075863;28;20060;-78
2023/12/01 00:26:50;;;;;;;19.35;12.60;;;;;;;;;;5037544;28;20048;-78
2023/12/01 00:29:17;;;;;;;15.57;11.70;;;;;;;;;;5076776;28;20068;-78
2023/12/01 00:31:44;;;;;;;18.52;12.57;;;;;;;;;;5059549;28;20430;-79
2023/12/01 00:34:10;;;;;;;19.20;12.23;;;;;;;;;;5040066;28;20057;-78
2023/12/01 00:36:37;;;;;;;18.45;11.05;;;;;;;;;;5043209;28;20048;-78
2023/12/01 00:39:06;;;;;;;16.85;11.77;;;;;;;;;;5039559;28;20143;-78
2023/12/01 00:41:33;;;;;;;17.70;11.75;;;;;;;;;;5055661;28;20067;-79
2023/12/01 00:44:00;;;;;;;16.40;11.20;;;;;;;;;;5073998;28;20106;-78
2023/12/01 00:46:26;;;;;;;18.02;11.18;;;;;;;;;;5067369;28;20055;-77
2023/12/01 00:48:53;;;;;;;17.30;11.57;;;;;;;;;;5055562;28;20533;-78
2023/12/01 00:51:20;;;;;;;18.75;12.50;;;;;;;;;;5052295;28;20528;-78
2023/12/01 00:53:47;;;;;;;18.88;11.55;;;;;;;;;;5078594;28;20076;-78
2023/12/01 00:56:14;;;;;;;19.60;11.48;;;;;;;;;;5067319;28;20410;-78
2023/12/01 00:58:42;;;;;;;18.00;12.10;;;;;;;;;;5057053;28;20107;-79
2023/12/01 01:01:09;;;;;;;17.08;11.55;;;;;;;;;;5041424;28;20040;-79
2023/12/01 01:03:36;;;;;;;22.52;13.73;;;;;;;;;;5057323;28;20049;-78
2023/12/01 01:06:03;;;;;;;16.13;11.07;;;;;;;;;;5067785;28;20395;-78
2023/12/01 01:08:30;;;;;;;19.17;12.65;;;;;;;;;;5068833;28;20048;-78
2023/12/01 01:10:57;;;;;;;18.85;11.45;;;;;;;;;;5056155;28;20056;-78
2023/12/01 01:13:26;;;;;;;16.10;11.88;;;;;;;;;;5073997;28;20079;-79
2023/12/01 01:15:53;;;;;;;21.80;12.93;;;;;;;;;;5051324;28;20060;-78
2023/12/01 01:18:20;;;;;;;20.38;13.35;;;;;;;;;;5066694;28;20547;-78
2023/12/01 01:20:47;;;;;;;18.73;11.60;;;;;;;;;;5055244;28;20106;-79
2023/12/01 01:23:14;;;;;;;18.38;13.15;;;;;;;;;;5058460;28;20454;-79
2023/12/01 01:25:41;;;;;;;19.77;13.10;;;;;;;;;;5060512;28;20052;-79
2023/12/01 01:28:08;;;;;;;20.15;12.88;;;;;;;;;;5084828;28;20052;-79
2023/12/01 01:30:35;;;;;;;17.75;12.15;;;;;;;;;;5055002;28;20059;-79
2023/12/01 01:33:02;;;;;;;19.75;12.65;;;;;;;;;;5053950;28;20084;-79
2023/12/01 01:35:30;;;;;;;20.60;12.93;;;;;;;;;;5039727;28;20113;-79
2023/12/01 01:37:57;;;;;;;18.52;13.00;;;;;;;;;;5040280;28;20125;-79
2023/12/01 01:40:24;;;;;;;23.65;14.15;;;;;;;;;;5052521;28;20121;-79
2023/12/01 01:42:51;;;;;;;20.08;13.65;;;;;;;;;;5065019;28;20087;-80
2023/12/01 01:45:18;;;;;;;19.52;12.75;;;;;;;;;;5056972;28;20060;-80
2023/12/01 01:47:44;;;;;;;22.10;13.85;;;;;;;;;;5074271;28;20040;-80
2023/12/01 01:50:11;;;;;;;21.23;14.40;;;;;;;;;;5068277;28;20072;-79
2023/12/01 01:52:38;;;;;;;20.83;12.73;;;;;;;;;;5059764;28;20076;-79
2023/12/01 01:55:06;;;;;;;21.13;14.10;;;;;;;;;;5053308;28;20057;-79
2023/12/01 01:57:38;;;;;;;25.00;14.98;;;;;;;;;;5088318;28;20044;-80
2023/12/01 02:00:06;;;;;;;26.38;15.10;;;;;;;;;;5056809;28;20088;-80
2023/12/01 02:02:35;;;;;;;22.38;15.88;;;;;;;;;;5060415;28;20772;-78
2023/12/01 02:05:02;;;;;;;21.15;13.93;;;;;;;;;;5052402;28;20132;-80
2023/12/01 02:07:29;;;;;;;23.02;15.05;;;;;;;;;;5040999;28;20045;-79
2023/12/01 02:09:55;;;;;;;22.45;15.65;;;;;;;;;;5064764;28;20110;-79
2023/12/01 02:12:22;;;;;;;21.17;14.05;;;;;;;;;;5053833;28;20514;-79
2023/12/01 02:14:49;;;;;;;22.88;14.95;;;;;;;;;;5057938;28;20045;-80
2023/12/01 02:17:16;;;;;;;24.90;15.43;;;;;;;;;;5051937;28;20059;-79
2023/12/01 02:19:43;;;;;;;23.92;15.32;;;;;;;;;;5071495;28;20111;-81
2023/12/01 02:22:10;;;;;;;25.75;15.65;;;;;;;;;;5062906;28;20049;-79
2023/12/01 02:24:36;;;;;;;26.42;16.15;;;;;;;;;;5047445;28;20052;-78
2023/12/01 02:27:03;;;;;;;23.52;15.75;;;;;;;;;;5081409;28;20053;-78
2023/12/01 02:29:30;;;;;;;25.20;16.27;;;;;;;;;;5081196;28;20685;-78
2023/12/01 02:31:58;;;;;;;22.63;16.10;;;;;;;;;;5081962;28;20110;-78
2023/12/01 02:34:25;;;;;;;25.60;17.00;;;;;;;;;;5079095;28;20084;-78
2023/12/01 02:36:53;;;;;;;25.88;16.70;;;;;;;;;;5069312;28;20049;-78
2023/12/01 02:39:20;;;;;;;25.13;15.65;;;;;;;;;;5038391;28;20049;-78
2023/12/01 02:41:48;;;;;;;23.95;15.60;;;;;;;;;;5075307;28;20448;-80
2023/12/01 02:44:15;;;;;;;27.52;17.92;;;;;;;;;;5069150;28;20052;-84
2023/12/01 02:46:42;;;;;;;25.35;16.67;;;;;;;;;;5065443;28;20471;-80
2023/12/01 02:49:09;;;;;;;26.10;16.83;;;;;;;;;;5068667;28;20083;-80
2023/12/01 02:51:35;;;;;;;26.90;15.20;;;;;;;;;;5056996;28;20045;-79
2023/12/01 02:54:02;;;;;;;27.50;16.42;;;;;;;;;;5064993;28;20053;-78
2023/12/01 02:56:29;;;;;;;25.85;15.98;;;;;;;;;;5059079;28;20045;-79
2023/12/01 02:58:56;;;;;;;22.92;15.70;;;;;;;;;;5048395;28;20083;-80
2023/12/01 03:01:23;;;;;;;23.90;15.27;;;;;;;;;;5034230;28;20052;-79
2023/12/01 03:03:51;;;;;;;24.08;16.00;;;;;;;;;;5058541;28;20507;-79
2023/12/01 03:06:18;;;;;;;24.60;16.80;;;;;;;;;;5074678;28;20111;-80
2023/12/01 03:08:46;;;;;;;26.15;16.23;;;;;;;;;;5054067;28;20045;-79
2023/12/01 03:11:12;;;;;;;26.38;15.55;;;;;;;;;;5054350;28;20109;-79
2023/12/01 03:13:39;;;;;;;23.40;15.02;;;;;;;;;;5071448;28;20083;-79
2023/12/01 03:16:06;;;;;;;21.75;14.35;;;;;;;;;;5053793;28;20092;-80
2023/12/01 03:18:35;;;;;;;26.40;16.52;;;;;;;;;;5054865;28;20055;-79
2023/12/01 03:21:02;;;;;;;21.90;15.38;;;;;;;;;;5070623;28;20098;-79
2023/12/01 03:23:29;;;;;;;23.30;15.68;;;;;;;;;;5040879;28;20045;-79
2023/12/01 03:25:56;;;;;;;24.85;16.60;;;;;;;;;;5073527;28;20165;-80
2023/12/01 03:28:23;;;;;;;25.80;15.82;;;;;;;;;;5073501;28;20052;-79
2023/12/01 03:30:50;;;;;;;24.40;15.68;;;;;;;;;;5055228;28;20051;-80
2023/12/01 03:33:16;;;;;;;26.95;17.08;;;;;;;;;;5072543;28;20065;-79
2023/12/01 03:35:43;;;;;;;26.75;16.98;;;;;;;;;;5061593;28;20048;-79
2023/12/01 03:38:10;;;;;;;25.35;15.40;;;;;;;;;;5086009;28;20470;-79
2023/12/01 03:40:39;;;;;;;24.98;15.60;;;;;;;;;;5069592;28;20040;-79
2023/12/01 03:43:06;;;;;;;24.95;16.77;;;;;;;;;;5052665;28;20460;-79
2023/12/01 03:45:33;;;;;;;26.42;16.08;;;;;;;;;;5040037;28;20565;-80
2023/12/01 03:47:59;;;;;;;26.73;16.38;;;;;;;;;;5060471;28;20053;-78
2023/12/01 03:50:26;;;;;;;27.27;16.73;;;;;;;;;;5070540;28;20060;-79
2023/12/01 03:52:53;;;;;;;28.73;16.50;;;;;;;;;;5065544;28;20719;-79
2023/12/01 03:55:20;;;;;;;26.20;16.55;;;;;;;;;;5058177;28;20568;-78
2023/12/01 03:57:47;;;;;;;28.48;16.92;;;;;;;;;;5075427;28;20105;-79
2023/12/01 04:00:16;;;;;;;28.38;17.08;;;;;;;;;;5076596;28;20075;-79
2023/12/01 04:02:46;;;;;;;28.92;18.55;;;;;;;;;;5069941;28;20514;-78
2023/12/01 04:05:18;;;;;;;28.50;17.48;;;;;;;;;;5052283;28;20080;-79
2023/12/01 04:07:52;;;;;;;27.83;17.58;;;;;;;;;;5049207;28;20064;-80
2023/12/01 04:10:27;;;;;;;28.73;18.58;;;;;;;;;;5042991;28;20044;-79
2023/12/01 04:12:55;;;;;;;29.38;17.65;;;;;;;;;;5066768;28;20067;-79
2023/12/01 04:15:25;;;;;;;28.90;18.90;;;;;;;;;;5061095;28;20064;-79
2023/12/01 04:17:53;;;;;;;29.77;18.25;;;;;;;;;;5055926;28;20052;-80
2023/12/01 04:20:27;;;;;;;28.10;18.35;;;;;;;;;;5072312;28;20048;-79
2023/12/01 04:22:59;;;;;;;32.00;18.58;;;;;;;;;;5066724;28;20079;-78
2023/12/01 04:25:27;;;;;;;28.58;18.63;;;;;;;;;;5054768;28;20056;-79
2023/12/01 04:27:58;;;;;;;30.92;18.73;;;;;;;;;;5039076;28;20091;-80
2023/12/01 04:30:25;;;;;;;33.30;18.02;;;;;;;;;;5051675;28;20558;-80
2023/12/01 04:32:54;;;;;;;28.75;18.58;;;;;;;;;;5073485;28;20181;-80
2023/12/01 04:35:25;;;;;;;31.40;18.88;;;;;;;;;;5036817;28;20522;-80
2023/12/01 04:37:52;;;;;;;27.88;17.38;;;;;;;;;;5045698;28;20118;-81
2023/12/01 04:40:19;;;;;;;27.77;18.38;;;;;;;;;;5052351;28;20060;-81
2023/12/01 04:42:50;;;;;;;32.42;17.75;;;;;;;;;;5081796;28;20044;-81
2023/12/01 04:45:19;;;;;;;27.77;19.13;;;;;;;;;;5051212;28;20059;-81
2023/12/01 04:47:51;;;;;;;28.30;18.85;;;;;;;;;;5047393;28;20072;-81
2023/12/01 04:50:19;;;;;;;28.40;18.52;;;;;;;;;;5036337;28;20494;-81
2023/12/01 04:52:54;;;;;;;29.90;17.75;;;;;;;;;;5068224;28;20131;-81
2023/12/01 04:55:30;;;;;;;26.00;17.02;;;;;;;;;;5035127;28;20088;-81
2023/12/01 04:58:00;;;;;;;27.40;17.48;;;;;;;;;;5057749;28;20064;-81
2023/12/01 05:00:27;;;;;;;24.92;16.40;;;;;;;;;;5054178;28;20140;-82
2023/12/01 05:02:56;;;;;;;26.20;17.55;;;;;;;;;;5053431;28;20055;-82
2023/12/01 05:05:24;;;;;;;29.63;17.77;;;;;;;;;;5037520;28;20048;-82
2023/12/01 05:07:53;;;;;;;28.25;17.42;;;;;;;;;;5048439;28;20106;-81
2023/12/01 05:10:21;;;;;;;24.95;16.83;;;;;;;;;;5040026;28;20079;-83
2023/12/01 05:12:49;;;;;;;23.73;16.55;;;;;;;;;;5070213;28;20053;-83
2023/12/01 05:15:18;;;;;;;24.10;16.73;;;;;;;;;;5061505;28;20693;-86
2023/12/01 05:17:47;;;;;;;26.67;16.20;;;;;;;;;;5033991;28;20037;-85
2023/12/01 05:20:19;;;;;;;26.88;16.50;;;;;;;;;;5029750;28;20052;-86
2023/12/01 05:22:53;;;;;;;25.00;16.38;;;;;;;;;;5035887;28;20040;-84
2023/12/01 05:25:21;;;;;;;26.17;16.08;;;;;;;;;;5072764;28;20081;-84
2023/12/01 05:27:52;;;;;;;26.88;16.40;;;;;;;;;;5041440;28;20098;-83
2023/12/01 05:30:24;;;;;;;26.05;16.17;;;;;;;;;;5065362;28;20048;-84
2023/12/01 05:32:52;;;;;;;23.27;15.75;;;;;;;;;;5068055;28;20288;-83
2023/12/01 05:35:19;;;;;;;25.50;16.90;;;;;;;;;;5083042;28;20057;-84
2023/12/01 05:37:48;;;;;;;24.88;17.77;;;;;;;;;;5042050;28;20055;-84
2023/12/01 05:40:17;;;;;;;22.83;16.30;;;;;;;;;;5040067;28;20061;-84
2023/12/01 05:42:44;;;;;;;25.27;16.80;;;;;;;;;;5046651;28;20055;-83
2023/12/01 05:45:11;;;;;;;25.42;17.48;;;;;;;;;;5089552;28;20040;-84
2023/12/01 05:47:42;;;;;;;25.02;17.50;;;;;;;;;;5074999;28;20105;-84
2023/12/01 05:50:14;;;;;;;25.83;16.65;;;;;;;;;;5067594;28;20044;-84
2023/12/01 05:52:42;;;;;;;23.17;16.60;;;;;;;;;;5051257;28;20044;-83
2023/12/01 05:55:14;;;;;;;27.08;17.33;;;;;;;;;;5087963;28;20064;-82
2023/12/01 05:57:46;;;;;;;24.80;16.52;;;;;;;;;;5081327;28;20127;-83
2023/12/01 06:00:18;;;;;;;24.33;16.33;;;;;;;;;;5045417;28;20053;-82
2023/12/01 06:02:45;;;;;;;28.83;16.00;;;;;;;;;;5058869;28;20059;-82
2023/12/01 06:05:16;;;;;;;24.67;16.08;;;;;;;;;;5042878;28;20061;-82
2023/12/01 06:07:49;;;;;;;28.55;16.70;;;;;;;;;;5043853;28;20048;-82
2023/12/01 06:10:17;;;;;;;26.70;17.90;;;;;;;;;;5044640;28;20063;-84
2023/12/01 06:12:45;;;;;;;25.88;17.25;;;;;;;;;;5061463;28;20062;-83
2023/12/01 06:15:13;;;;;;;27.20;16.70;;;;;;;;;;5043882;28;20056;-83
2023/12/01 06:17:41;;;;;;;26.70;16.52;;;;;;;;;;5061744;28;20040;-83
2023/12/01 06:20:19;;;;;;;23.70;16.15;;;;;;;;;;5076148;28;20053;-83
2023/12/01 06:22:53;;;;;;;25.98;17.40;;;;;;;;;;5056968;28;20076;-83
2023/12/01 06:25:26;;;;;;;28.77;18.30;;;;;;;;;;5063649;28;20055;-84
2023/12/01 06:27:57;;;;;;;;;;;;;;;;;;5065802;28;20063;-82
2023/12/01 06:30:35;;;;;;;28.60;16.38;;;;;;;;;;5092788;28;19928;-82
2023/12/01 06:33:05;;;;;;;25.38;17.27;;;;;;;;;;5096531;28;20060;-84
2023/12/01 06:35:33;;;;;;;24.67;17.15;;;;;;;;;;5051416;28;20060;-82
2023/12/01 06:38:02;;;;;;;23.20;15.63;;;;;;;;;;5071951;28;20525;-82
2023/12/01 06:40:33;;;;;;;23.40;16.02;;;;;;;;;;5038194;28;20048;-82
2023/12/01 06:43:02;;;;;;;31.85;20.70;;;;;;;;;;5044438;28;20076;-83
2023/12/01 06:45:29;;;;;;;31.40;21.55;;;;;;;;;;5051565;28;20058;-82
2023/12/01 06:47:59;;;;;;;29.73;20.30;;;;;;;;;;5066151;28;20059;-80
2023/12/01 06:50:29;;;;;;;25.85;17.55;;;;;;;;;;5045868;28;20056;-81
2023/12/01 06:53:00;;;;;;;28.20;17.75;;;;;;;;;;5031340;28;20064;-80
2023/12/01 06:55:27;;;;;;;27.90;18.05;;;;;;;;;;5034244;28;20055;-81
2023/12/01 06:57:55;;;;;;;27.13;16.90;;;;;;;;;;5071889;28;20130;-81
2023/12/01 07:02:57;;;;;;;24.25;16.42;;;;;;;;;;5060611;28;20063;-82
2023/12/01 07:05:25;;;;;;;30.33;18.35;;;;;;;;;;5055879;28;20048;-81
2023/12/01 07:07:53;;;;;;;31.52;18.60;;;;;;;;;;5092802;28;20663;-81
2023/12/01 07:10:21;;;;;;;23.17;16.80;;;;;;;;;;5034679;28;20056;-83
2023/12/01 07:12:52;;;;;;;30.70;18.42;;;;;;;;;;5040134;28;20483;-85
2023/12/01 07:15:23;;;;;;;24.35;16.48;;;;;;;;;;5054668;28;20052;-83
2023/12/01 07:17:51;;;;;;;26.63;16.77;;;;;;;;;;5054931;28;20135;-81
2023/12/01 07:20:18;;;;;;;26.52;16.58;;;;;;;;;;5055139;28;20502;-80
2023/12/01 07:22:46;;;;;;;24.30;17.42;;;;;;;;;;5053468;28;20564;-85
2023/12/01 07:25:23;;;;;;;26.98;17.55;;;;;;;;;;5037711;28;20071;-80
2023/12/01 07:28:01;;;;;;;28.35;17.20;;;;;;;;;;5072118;28;20151;-80
2023/12/01 07:30:28;;;;;;;28.13;17.35;;;;;;;;;;5054672;28;20052;-80
2023/12/01 07:32:56;;;;;;;25.77;17.38;;;;;;;;;;5082068;28;20042;-77
2023/12/01 07:35:23;;;;;;;29.25;17.92;;;;;;;;;;5054382;28;20056;-78
2023/12/01 07:37:52;;;;;;;25.58;17.00;;;;;;;;;;5070106;28;20094;-79
2023/12/01 07:40:20;;;;;;;28.73;18.10;;;;;;;;;;5054407;28;20522;-80
2023/12/01 07:42:51;;;;;;;28.67;18.30;;;;;;;;;;5054125;28;20133;-79
2023/12/01 07:45:19;;;;;;;29.40;18.33;;;;;;;;;;5068157;28;20091;-79
2023/12/01 07:47:48;;;;;;;27.92;17.63;;;;;;;;;;5070603;28;20080;-80
2023/12/01 07:50:16;;;;;;;31.60;19.40;;;;;;;;;;5038719;28;20075;-79
2023/12/01 07:52:44;;;;;;;26.48;17.67;;;;;;;;;;5053617;28;20064;-81
2023/12/01 07:55:10;;;;;;;28.55;19.08;;;;;;;;;;5054527;28;20127;-80
2023/12/01 07:57:38;;;;;;;28.60;17.50;;;;;;;;;;5070787;28;20048;-81
2023/12/01 08:00:06;;;;;;;31.08;19.15;;;;;;;;;;5057456;28;20117;-81
2023/12/01 08:02:32;;;;;;;28.88;18.50;;;;;;;;;;5037600;28;20060;-80
2023/12/01 08:04:59;;;;;;;36.78;21.13;;;;;;;;;;5056964;28;20521;-79
2023/12/01 08:07:26;;;;;;;33.15;19.75;;;;;;;;;;5074460;28;20052;-79
2023/12/01 08:09:53;;;;;;;31.35;19.27;;;;;;;;;;5040609;28;20502;-80
2023/12/01 08:12:24;;;;;;;32.40;20.13;;;;;;;;;;5071003;28;20178;-81
2023/12/01 08:14:51;;;;;;;34.30;21.40;;;;;;;;;;5045158;28;20060;-81
2023/12/01 08:17:18;;;;;;;31.98;20.83;;;;;;;;;;5040476;28;20076;-80
2023/12/01 08:19:45;;;;;;;29.75;20.40;;;;;;;;;;5070174;28;20455;-81
2023/12/01 08:22:11;;;;;;;32.05;19.92;;;;;;;;;;5067724;28;20057;-83
2023/12/01 08:24:38;;;;;;;26.98;17.80;;;;;;;;;;5058051;28;20049;-83
2023/12/01 08:27:07;;;;;;;30.30;19.05;;;;;;;;;;5068933;28;20052;-80
2023/12/01 08:29:35;;;;;;;31.63;20.98;;;;;;;;;;5034535;28;20099;-81
2023/12/01 08:32:03;;;;;;;30.00;18.67;;;;;;;;;;5051421;28;20057;-80
2023/12/01 08:34:30;;;;;;;30.98;19.83;;;;;;;;;;5037341;28;20112;-80
2023/12/01 08:36:57;;;;;;;30.27;19.48;;;;;;;;;;5052280;28;20140;-80
2023/12/01 08:39:24;;;;;;;30.05;20.42;;;;;;;;;;5051853;28;20719;-81
2023/12/01 08:41:55;;;;;;;44.20;24.55;;;;;;;;;;5051769;28;20057;-81
2023/12/01 08:44:22;;;;;;;40.05;24.60;;;;;;;;;;5064859;28;20118;-81
2023/12/01 08:46:49;;;;;;;34.85;22.55;;;;;;;;;;5055910;28;20109;-82
2023/12/01 08:49:16;;;;;;;36.42;23.02;;;;;;;;;;5051582;28;20056;-79
2023/12/01 08:51:42;;;;;;;34.67;21.55;;;;;;;;;;5066492;28;20052;-82
2023/12/01 08:54:09;;;;;;;31.75;20.25;;;;;;;;;;5054218;28;20646;-82
2023/12/01 08:56:37;;;;;;;31.35;19.67;;;;;;;;;;5076817;28;20044;-81
2023/12/01 08:59:04;;;;;;;29.88;19.40;;;;;;;;;;5056704;28;20076;-79
2023/12/01 09:01:31;;;;;;;30.27;19.23;;;;;;;;;;5046691;28;20128;-80
2023/12/01 09:03:58;;;;;;;31.50;19.63;;;;;;;;;;5040734;28;20053;-80
2023/12/01 09:06:25;;;;;;;29.63;19.35;;;;;;;;;;5071282;28;20051;-84
2023/12/01 09:08:56;;;;;;;29.88;19.05;;;;;;;;;;5036994;28;20048;-82
2023/12/01 09:11:23;;;;;;;38.22;21.90;;;;;;;;;;5035338;28;20140;-81
2023/12/01 09:13:50;;;;;;;33.97;21.23;;;;;;;;;;5028163;28;20056;-80
2023/12/01 09:16:17;;;;;;;36.78;21.05;;;;;;;;;;5069318;28;20075;-77
2023/12/01 09:18:44;;;;;;;34.88;21.33;;;;;;;;;;5067996;28;20072;-81
2023/12/01 09:21:11;;;;;;;32.42;20.02;;;;;;;;;;5040626;28;20445;-81
2023/12/01 09:23:40;;;;;;;31.15;19.35;;;;;;;;;;5069929;28;20075;-81
2023/12/01 09:26:07;;;;;;;33.13;20.58;;;;;;;;;;5054907;28;20064;-81
2023/12/01 09:28:35;;;;;;;30.50;19.30;;;;;;;;;;5066456;28;20482;-82
2023/12/01 09:31:03;;;;;;;28.73;18.75;;;;;;;;;;5073634;28;20056;-81
2023/12/01 09:33:30;;;;;;;27.35;18.73;;;;;;;;;;5081798;28;20049;-81
2023/12/01 09:35:57;;;;;;;29.23;18.17;;;;;;;;;;5076720;28;20071;-81
2023/12/01 09:38:26;;;;;;;29.02;17.42;;;;;;;;;;5037878;28;20108;-82
2023/12/01 09:40:54;;;;;;;31.13;19.35;;;;;;;;;;5077639;28;20052;-81
2023/12/01 09:43:20;;;;;;;28.23;18.17;;;;;;;;;;5056114;28;20105;-82
2023/12/01 09:45:49;;;;;;;29.08;18.45;;;;;;;;;;5057599;28;20511;-80
2023/12/01 09:48:18;;;;;;;27.30;18.23;;;;;;;;;;5064467;28;20075;-79
2023/12/01 09:50:46;;;;;;;26.67;17.70;;;;;;;;;;5035039;28;20122;-81
2023/12/01 09:53:16;;;;;;;29.92;18.67;;;;;;;;;;5041572;28;20062;-82
2023/12/01 09:55:43;;;;;;;30.38;17.27;;;;;;;;;;5055268;28;20081;-84
2023/12/01 09:58:10;;;;;;;27.02;18.23;;;;;;;;;;5031585;28;20052;-83
2023/12/01 10:00:38;;;;;;;27.23;17.55;;;;;;;;;;5032112;28;20052;-81
2023/12/01 10:03:05;;;;;;;26.42;17.10;;;;;;;;;;5061043;28;20057;-82
2023/12/01 10:05:35;;;;;;;31.08;18.70;;;;;;;;;;5039089;28;20079;-82
2023/12/01 10:08:04;;;;;;;25.65;17.60;;;;;;;;;;5036787;28;20052;-82
2023/12/01 10:10:31;;;;;;;28.95;19.40;;;;;;;;;;5054615;28;20515;-81
2023/12/01 10:13:07;;;;;;;34.28;20.55;;;;;;;;;;5051905;28;20106;-81
2023/12/01 10:15:39;;;;;;;28.83;17.60;;;;;;;;;;5053207;28;20054;-80
2023/12/01 10:18:11;;;;;;;30.15;18.75;;;;;;;;;;5056782;28;20049;-81
2023/12/01 10:21:02;;;;;;;28.77;18.38;;;;;;;;;;5051987;28;20143;-81
2023/12/01 10:23:33;;;;;;;34.00;19.90;;;;;;;;;;5065853;28;20061;-81
2023/12/01 10:26:03;;;;;;;31.00;19.13;;;;;;;;;;5042404;28;20048;-81
2023/12/01 10:28:42;;;;;;;31.05;19.70;;;;;;;;;;5074191;28;20052;-81
2023/12/01 10:31:10;;;;;;;30.90;19.40;;;;;;;;;;5072596;28;20131;-81
2023/12/01 10:33:38;;;;;;;32.17;19.90;;;;;;;;;;5064891;28;20075;-81
2023/12/01 10:36:07;;;;;;;32.72;19.90;;;;;;;;;;5041152;28;20068;-81
2023/12/01 10:38:36;;;;;;;31.27;19.80;;;;;;;;;;5053586;28;20048;-81
2023/12/01 10:41:04;;;;;;;35.60;19.73;;;;;;;;;;5042126;28;20525;-80
2023/12/01 10:43:31;;;;;;;38.35;20.73;;;;;;;;;;5044726;28;20068;-80
2023/12/01 10:46:02;;;;;;;34.25;21.33;;;;;;;;;;5062660;28;20052;-82
2023/12/01 10:48:32;;;;;;;35.85;21.08;;;;;;;;;;5045247;28;20063;-81
2023/12/01 10:51:02;;;;;;;35.72;20.98;;;;;;;;;;5037120;28;20052;-81
2023/12/01 10:53:30;;;;;;;36.92;22.30;;;;;;;;;;5066410;28;20056;-80
2023/12/01 10:56:01;;;;;;;40.97;23.85;;;;;;;;;;5062576;28;20052;-81
2023/12/01 10:58:28;;;;;;;38.92;22.23;;;;;;;;;;5041604;28;20494;-82
2023/12/01 11:00:57;;;;;;;36.22;21.60;;;;;;;;;;5056324;28;20345;-82
2023/12/01 11:03:28;;;;;;;34.88;21.40;;;;;;;;;;5061051;28;20048;-81
2023/12/01 11:06:06;;;;;;;37.38;22.70;;;;;;;;;;5079493;28;20052;-81
2023/12/01 11:08:59;;;;;;;40.00;22.75;;;;;;;;;;5061145;28;20045;-84
2023/12/01 11:11:49;;;;;;;38.92;22.45;;;;;;;;;;5057956;28;20053;-81
2023/12/01 11:14:17;;;;;;;39.20;23.48;;;;;;;;;;5076280;28;20048;-82
2023/12/01 11:16:47;;;;;;;40.72;23.00;;;;;;;;;;5039942;28;20071;-81
2023/12/01 11:19:18;;;;;;;35.72;21.15;;;;;;;;;;5059408;28;20139;-82
2023/12/01 11:21:49;;;;;;;38.05;22.40;;;;;;;;;;5056388;28;20083;-82
2023/12/01 11:24:23;;;;;;;37.42;21.27;;;;;;;;;;5087605;28;20139;-81
2023/12/01 11:26:52;;;;;;;35.80;21.10;;;;;;;;;;5075213;28;20056;-82
2023/12/01 11:29:28;;;;;;;36.08;22.73;;;;;;;;;;5056652;28;20044;-82
2023/12/01 11:31:58;;;;;;;38.88;23.20;;;;;;;;;;5039719;28;20125;-81
2023/12/01 11:34:25;;;;;;;38.50;22.83;;;;;;;;;;5081906;28;20048;-82
2023/12/01 11:36:53;;;;;;;42.97;23.60;;;;;;;;;;5061289;28;20048;-81
2023/12/01 11:39:23;;;;;;;39.03;21.60;;;;;;;;;;5057143;28;20048;-82
2023/12/01 11:41:55;;;;;;;39.78;22.63;;;;;;;;;;5071777;28;20040;-81
2023/12/01 11:44:43;;;;;;;39.15;22.05;;;;;;;;;;5056901;28;20128;-81
2023/12/01 11:47:14;;;;;;;38.78;23.55;;;;;;;;;;5072286;28;20056;-82
2023/12/01 11:49:43;;;;;;;39.78;23.27;;;;;;;;;;5072995;28;20076;-81
2023/12/01 11:52:18;;;;;;;37.20;21.75;;;;;;;;;;5059780;28;20044;-80
2023/12/01 11:54:48;;;;;;;41.30;23.45;;;;;;;;;;5059446;28;20105;-81
2023/12/01 11:57:17;;;;;;;43.70;23.67;;;;;;;;;;5064153;28;20056;-81
2023/12/01 11:59:45;;;;;;;39.38;23.52;;;;;;;;;;5040516;28;20484;-81
2023/12/01 12:02:14;;;;;;;41.20;23.52;;;;;;;;;;5062893;28;20061;-80
2023/12/01 12:04:46;;;;;;;49.05;24.45;;;;;;;;;;5058019;28;20107;-82
2023/12/01 12:07:15;;;;;;;44.20;24.27;;;;;;;;;;5061616;28;20419;-81
2023/12/01 12:09:44;;;;;;;39.67;22.98;;;;;;;;;;5054446;28;20132;-81
2023/12/01 12:12:13;;;;;;;43.20;24.23;;;;;;;;;;5045707;28;20116;-81
2023/12/01 12:14:42;;;;;;;43.42;24.00;;;;;;;;;;5061701;28;20060;-81
2023/12/01 12:17:09;;;;;;;45.70;24.67;;;;;;;;;;5076397;28;20071;-81
2023/12/01 12:19:43;;;;;;;46.05;24.65;;;;;;;;;;5040430;28;20053;-80
2023/12/01 12:22:19;;;;;;;50.17;26.27;;;;;;;;;;5074145;28;20048;-80
2023/12/01 12:24:47;;;;;;;50.92;26.10;;;;;;;;;;5047011;28;20083;-80
2023/12/01 12:27:14;;;;;;;48.97;25.13;;;;;;;;;;5055392;28;20499;-80
2023/12/01 12:29:42;;;;;;;51.80;27.08;;;;;;;;;;5043891;28;20044;-80
2023/12/01 12:32:09;;;;;;;43.13;23.67;;;;;;;;;;5057222;28;20056;-79
2023/12/01 12:34:38;;;;;;;50.72;25.63;;;;;;;;;;5084432;28;20082;-80
2023/12/01 12:37:06;;;;;;;49.58;26.85;;;;;;;;;;5060719;28;20423;-80
2023/12/01 12:39:33;;;;;;;47.95;25.77;;;;;;;;;;5043582;28;20048;-80
2023/12/01 12:42:01;;;;;;;47.45;25.60;;;;;;;;;;5062024;28;20048;-81
2023/12/01 12:44:31;;;;;;;47.03;25.27;;;;;;;;;;5047699;28;20062;-80
2023/12/01 12:47:04;;;;;;;45.47;24.13;;;;;;;;;;5079899;28;20128;-81
2023/12/01 12:49:33;;;;;;;42.60;24.25;;;;;;;;;;5057836;28;20080;-81
2023/12/01 12:52:02;;;;;;;47.45;26.02;;;;;;;;;;5073639;28;20053;-81
2023/12/01 12:54:29;;;;;;;42.67;23.00;;;;;;;;;;5056603;28;20072;-82
2023/12/01 12:56:56;;;;;;;44.15;23.58;;;;;;;;;;5072006;28;20118;-82
2023/12/01 12:59:23;;;;;;;49.83;25.08;;;;;;;;;;5078741;28;20113;-81
2023/12/01 13:01:50;;;;;;;46.25;24.83;;;;;;;;;;5046125;28;20049;-81
2023/12/01 13:04:19;;;;;;;40.35;24.02;;;;;;;;;;5046229;28;20053;-80
2023/12/01 13:06:46;;;;;;;43.70;23.92;;;;;;;;;;5049354;28;20131;-81
2023/12/01 13:09:17;;;;;;;41.13;22.08;;;;;;;;;;5062611;28;20498;-80
2023/12/01 13:11:45;;;;;;;43.30;23.48;;;;;;;;;;5058847;28;20060;-82
2023/12/01 13:14:13;;;;;;;46.67;23.10;;;;;;;;;;5079134;28;20054;-82
2023/12/01 13:16:40;;;;;;;45.63;23.10;;;;;;;;;;5046117;28;20075;-82
2023/12/01 13:19:22;;;;;;;48.55;24.65;;;;;;;;;;5075451;28;20123;-84
2023/12/01 13:21:49;;;;;;;51.83;25.75;;;;;;;;;;5062508;28;20056;-82
2023/12/01 13:24:21;;;;;;;47.55;26.63;;;;;;;;;;5073903;28;20052;-82
2023/12/01 13:26:50;;;;;;;49.17;26.92;;;;;;;;;;5087390;28;20100;-82
2023/12/01 13:29:17;;;;;;;52.22;27.33;;;;;;;;;;5089429;28;20079;-82
2023/12/01 13:31:44;;;;;;;51.70;27.23;;;;;;;;;;5076035;28;20059;-81
2023/12/01 13:34:11;;;;;;;51.10;25.42;;;;;;;;;;5052490;28;20048;-82
2023/12/01 13:36:39;;;;;;;53.50;26.88;;;;;;;;;;5067084;28;20049;-82
2023/12/01 13:39:05;;;;;;;54.00;27.92;;;;;;;;;;5072051;28;20055;-82
2023/12/01 13:41:32;;;;;;;57.40;27.83;;;;;;;;;;5064892;28;20056;-83
2023/12/01 13:43:59;;;;;;;54.67;27.77;;;;;;;;;;5038515;28;20084;-84
2023/12/01 13:46:28;;;;;;;57.72;29.90;;;;;;;;;;5048428;28;20510;-83
2023/12/01 13:48:55;;;;;;;54.58;27.80;;;;;;;;;;5039947;28;20098;-82
2023/12/01 13:51:22;;;;;;;58.83;28.90;;;;;;;;;;5065076;28;20555;-82
2023/12/01 13:53:49;;;;;;;55.70;27.55;;;;;;;;;;5054505;28;20136;-83
2023/12/01 13:56:16;;;;;;;63.53;28.38;;;;;;;;;;5058184;28;20098;-82
2023/12/01 13:58:43;;;;;;;60.83;28.17;;;;;;;;;;5064531;28;20056;-82
2023/12/01 14:01:14;;;;;;;61.00;27.50;;;;;;;;;;5034222;28;20558;-82
2023/12/01 14:03:41;;;;;;;64.57;29.60;;;;;;;;;;5066435;28;20044;-82
2023/12/01 14:06:08;;;;;;;60.47;28.55;;;;;;;;;;5032386;28;20462;-82
2023/12/01 14:08:35;;;;;;;61.40;30.65;;;;;;;;;;5048495;28;20051;-82
2023/12/01 14:11:05;;;;;;;60.25;29.67;;;;;;;;;;5029616;28;20048;-82
2023/12/01 14:13:44;;;;;;;63.83;30.15;;;;;;;;;;5037717;28;20044;-82
2023/12/01 14:16:14;;;;;;;64.88;29.48;;;;;;;;;;5042702;28;20510;-82
2023/12/01 14:18:55;;;;;;;63.35;29.63;;;;;;;;;;5050363;28;20124;-82
2023/12/01 14:21:23;;;;;;;62.88;29.65;;;;;;;;;;5060437;28;20048;-82
2023/12/01 14:23:51;;;;;;;60.45;28.13;;;;;;;;;;5084449;28;20059;-81
2023/12/01 14:26:19;;;;;;;61.63;30.38;;;;;;;;;;5043682;28;20583;-82
2023/12/01 14:28:53;;;;;;;63.20;28.98;;;;;;;;;;5055384;28;20529;-81
2023/12/01 14:31:21;;;;;;;60.30;27.55;;;;;;;;;;5054180;28;20045;-81